Time;durP1;ratioP1;P1;durP2;ratioP2;P2;SDS_P1;SDS_P2;PMS_P1;PMS_P2;Temp;Humidity;BMP_temperature;BMP_pressure;BME280_temperature;BME280_humidity;BME280_pressure;Samples;Min_cycle;Max_cycle;Signal;HPM_P1;HPM_P2
2021/09/22 00:02:02;;;;;;;;;24.25;22.50;;;;;;;;5026107;28;10358;-82
2021/09/22 00:04:29;;;;;;;;;23.50;23.50;;;;;;;;5042233;28;10480;-83
2021/09/22 00:06:58;;;;;;;;;32.75;29.50;;;;;;;;5042454;28;10315;-82
2021/09/22 00:09:25;;;;;;;;;23.75;19.75;;;;;;;;5042842;28;10580;-83
2021/09/22 00:11:53;;;;;;;;;29.25;26.75;;;;;;;;5044901;28;10259;-83
2021/09/22 00:14:20;;;;;;;;;28.50;23.25;;;;;;;;5024954;28;10336;-81
2021/09/22 00:16:47;;;;;;;;;21.50;21.50;;;;;;;;5044694;28;10530;-82
2021/09/22 00:19:15;;;;;;;;;27.50;27.50;;;;;;;;5044325;28;10225;-82
2021/09/22 00:21:42;;;;;;;;;26.25;23.25;;;;;;;;5043434;28;10486;-79
2021/09/22 00:24:11;;;;;;;;;22.25;21.25;;;;;;;;5026301;28;10428;-81
2021/09/22 00:26:38;;;;;;;;;31.25;26.00;;;;;;;;5034764;28;10367;-80
2021/09/22 00:29:06;;;;;;;;;28.75;25.00;;;;;;;;5025567;28;10379;-81
2021/09/22 00:31:36;;;;;;;;;14.50;12.50;;;;;;;;5036584;28;10444;-80
2021/09/22 00:34:03;;;;;;;;;21.75;21.25;;;;;;;;5044220;28;10290;-80
2021/09/22 00:36:30;;;;;;;;;30.25;26.50;;;;;;;;5043443;28;10315;-82
2021/09/22 00:38:58;;;;;;;;;20.75;18.50;;;;;;;;5041501;28;10516;-80
2021/09/22 00:41:27;;;;;;;;;15.25;15.25;;;;;;;;5043973;28;10531;-81
2021/09/22 00:43:54;;;;;;;;;23.50;21.75;;;;;;;;5042661;28;10267;-82
2021/09/22 00:46:21;;;;;;;;;20.50;17.00;;;;;;;;5039870;28;10488;-80
2021/09/22 00:48:49;;;;;;;;;24.25;24.25;;;;;;;;5043540;28;10437;-81
2021/09/22 00:51:16;;;;;;;;;19.75;19.00;;;;;;;;5025497;28;10493;-81
2021/09/22 00:53:43;;;;;;;;;24.25;24.00;;;;;;;;5042555;28;10574;-80
2021/09/22 00:56:10;;;;;;;;;19.00;19.00;;;;;;;;5043163;28;11498;-77
2021/09/22 00:58:39;;;;;;;;;18.25;18.25;;;;;;;;5043460;28;10558;-74
2021/09/22 01:01:06;;;;;;;;;19.00;17.00;;;;;;;;5038855;28;10531;-74
2021/09/22 01:03:34;;;;;;;;;18.25;18.25;;;;;;;;5040824;28;11281;-76
2021/09/22 01:06:01;;;;;;;;;20.00;19.50;;;;;;;;5035244;28;10575;-74
2021/09/22 01:08:30;;;;;;;;;17.00;15.75;;;;;;;;5037634;28;10727;-82
2021/09/22 01:10:58;;;;;;;;;23.25;23.25;;;;;;;;5041713;28;10728;-82
2021/09/22 01:13:26;;;;;;;;;21.75;20.50;;;;;;;;5043746;28;10990;-81
2021/09/22 01:15:55;;;;;;;;;21.50;20.00;;;;;;;;5024688;28;10924;-81
2021/09/22 01:18:24;;;;;;;;;26.00;23.00;;;;;;;;5034578;28;10919;-80
2021/09/22 01:20:53;;;;;;;;;23.75;19.75;;;;;;;;5023183;28;10882;-78
2021/09/22 01:23:22;;;;;;;;;25.00;24.75;;;;;;;;5041655;28;10720;-83
2021/09/22 01:25:51;;;;;;;;;28.25;25.25;;;;;;;;5025821;28;11063;-80
2021/09/22 01:28:21;;;;;;;;;25.25;24.75;;;;;;;;5042247;28;11086;-82
2021/09/22 01:30:49;;;;;;;;;27.00;23.00;;;;;;;;5025852;28;10837;-82
2021/09/22 01:33:18;;;;;;;;;27.00;24.50;;;;;;;;5043508;28;10804;-82
2021/09/22 01:35:47;;;;;;;;;20.50;19.25;;;;;;;;5042916;28;10877;-83
2021/09/22 01:38:16;;;;;;;;;26.00;23.25;;;;;;;;5043301;28;10818;-83
2021/09/22 01:40:56;;;;;;;;;27.75;22.75;;;;;;;;5043065;28;10935;-81
2021/09/22 01:43:23;;;;;;;;;24.75;24.75;;;;;;;;5040282;28;11949;-79
2021/09/22 01:45:51;;;;;;;;;28.75;26.25;;;;;;;;5040568;28;10962;-83
2021/09/22 01:48:18;;;;;;;;;23.00;20.50;;;;;;;;5039025;28;10887;-80
2021/09/22 01:50:46;;;;;;;;;25.50;24.00;;;;;;;;5043780;28;10961;-81
2021/09/22 01:53:13;;;;;;;;;21.00;20.25;;;;;;;;5042176;28;10909;-83
2021/09/22 01:55:40;;;;;;;;;21.75;21.25;;;;;;;;5035911;28;10875;-81
2021/09/22 01:58:09;;;;;;;;;16.75;16.75;;;;;;;;5041446;28;10952;-81
2021/09/22 02:00:37;;;;;;;;;22.00;18.75;;;;;;;;5042793;28;10980;-81
2021/09/22 02:03:04;;;;;;;;;22.25;20.75;;;;;;;;5040291;28;11580;-82
2021/09/22 02:05:32;;;;;;;;;22.50;18.25;;;;;;;;5040643;28;10982;-80
2021/09/22 02:07:59;;;;;;;;;25.50;22.25;;;;;;;;5041106;28;10778;-80
2021/09/22 02:10:27;;;;;;;;;24.00;21.50;;;;;;;;5046730;28;11092;-82
2021/09/22 02:12:54;;;;;;;;;34.00;26.75;;;;;;;;5028739;28;11116;-80
2021/09/22 02:15:23;;;;;;;;;28.25;27.50;;;;;;;;5044603;28;11152;-83
2021/09/22 02:17:51;;;;;;;;;22.75;19.00;;;;;;;;5046442;28;11064;-82
2021/09/22 02:20:18;;;;;;;;;27.50;26.25;;;;;;;;5028894;28;11244;-82
2021/09/22 02:22:45;;;;;;;;;20.25;20.25;;;;;;;;5028832;28;11138;-81
2021/09/22 02:25:13;;;;;;;;;24.00;21.00;;;;;;;;5046366;28;11087;-83
2021/09/22 02:27:41;;;;;;;;;25.75;22.75;;;;;;;;5012700;28;12073;-84
2021/09/22 02:30:11;;;;;;;;;30.75;26.50;;;;;;;;5046193;28;11231;-82
2021/09/22 02:32:41;;;;;;;;;31.25;29.00;;;;;;;;5039730;28;11184;-82
2021/09/22 02:35:09;;;;;;;;;29.75;21.00;;;;;;;;5046581;28;11620;-82
2021/09/22 02:37:36;;;;;;;;;24.00;22.25;;;;;;;;5045267;28;11108;-84
2021/09/22 02:40:06;;;;;;;;;22.75;20.50;;;;;;;;5046109;28;11014;-82
2021/09/22 02:42:33;;;;;;;;;17.50;17.50;;;;;;;;5027724;28;10802;-82
2021/09/22 02:45:00;;;;;;;;;27.75;23.50;;;;;;;;5042466;28;10932;-81
2021/09/22 02:47:28;;;;;;;;;21.25;18.25;;;;;;;;5045951;28;10980;-82
2021/09/22 02:49:56;;;;;;;;;26.25;24.50;;;;;;;;5045558;28;10927;-84
2021/09/22 02:52:24;;;;;;;;;24.50;20.50;;;;;;;;5046326;28;11062;-84
2021/09/22 02:54:51;;;;;;;;;24.75;22.25;;;;;;;;5042284;28;10935;-83
2021/09/22 02:57:19;;;;;;;;;23.75;21.00;;;;;;;;5046138;28;11034;-81
2021/09/22 02:59:46;;;;;;;;;18.25;15.25;;;;;;;;5044203;28;10889;-82
2021/09/22 03:02:13;;;;;;;;;19.50;15.50;;;;;;;;5041684;28;10773;-81
2021/09/22 03:04:41;;;;;;;;;19.75;19.75;;;;;;;;5045619;28;10716;-83
2021/09/22 03:07:09;;;;;;;;;26.50;25.00;;;;;;;;5041874;28;10898;-85
2021/09/22 03:09:37;;;;;;;;;23.25;21.00;;;;;;;;5045347;28;10948;-84
2021/09/22 03:12:04;;;;;;;;;16.75;15.25;;;;;;;;5020336;28;10882;-84
2021/09/22 03:14:32;;;;;;;;;27.75;25.75;;;;;;;;5044049;28;11854;-82
2021/09/22 03:16:59;;;;;;;;;21.25;19.75;;;;;;;;5044236;28;11014;-82
2021/09/22 03:19:26;;;;;;;;;20.50;17.75;;;;;;;;5044589;28;10922;-83
2021/09/22 03:21:54;;;;;;;;;21.75;18.50;;;;;;;;5045656;28;11667;-82
2021/09/22 03:24:23;;;;;;;;;21.25;18.50;;;;;;;;5045024;28;10904;-83
2021/09/22 03:26:50;;;;;;;;;17.25;17.00;;;;;;;;5046133;28;11030;-82
2021/09/22 03:29:17;;;;;;;;;21.50;20.75;;;;;;;;5044256;28;11165;-79
2021/09/22 03:31:45;;;;;;;;;19.00;19.00;;;;;;;;5045488;28;10826;-83
2021/09/22 03:34:12;;;;;;;;;21.50;17.25;;;;;;;;5043127;28;10943;-82
2021/09/22 03:36:39;;;;;;;;;16.75;15.75;;;;;;;;5011084;28;11068;-84
2021/09/22 03:39:07;;;;;;;;;21.25;18.25;;;;;;;;5045653;28;11053;-79
2021/09/22 03:41:35;;;;;;;;;15.50;15.50;;;;;;;;5044231;28;11059;-82
2021/09/22 03:44:03;;;;;;;;;18.75;17.50;;;;;;;;5044666;28;11067;-82
2021/09/22 03:46:30;;;;;;;;;20.50;16.50;;;;;;;;5040916;28;10953;-82
2021/09/22 03:48:57;;;;;;;;;22.25;17.00;;;;;;;;5045128;28;10888;-81
2021/09/22 03:51:25;;;;;;;;;16.50;16.50;;;;;;;;5043842;28;11104;-82
2021/09/22 03:53:52;;;;;;;;;23.00;21.25;;;;;;;;5044466;28;11137;-82
2021/09/22 03:56:19;;;;;;;;;21.75;21.75;;;;;;;;5026045;28;10945;-82
2021/09/22 03:58:48;;;;;;;;;18.25;18.25;;;;;;;;5041149;28;11036;-83
2021/09/22 04:01:16;;;;;;;;;21.50;20.50;;;;;;;;5043660;28;10976;-82
2021/09/22 04:03:43;;;;;;;;;21.25;20.25;;;;;;;;5043437;28;11062;-82
2021/09/22 04:06:11;;;;;;;;;22.50;21.50;;;;;;;;5046534;28;11300;-81
2021/09/22 04:08:38;;;;;;;;;22.50;21.50;;;;;;;;5046419;28;11210;-80
2021/09/22 04:11:06;;;;;;;;;34.00;32.75;;;;;;;;5044373;28;11108;-78
2021/09/22 04:13:33;;;;;;;;;29.50;28.00;;;;;;;;5039234;28;12168;-81
2021/09/22 04:16:02;;;;;;;;;28.50;26.25;;;;;;;;5043342;28;11235;-80
2021/09/22 04:18:30;;;;;;;;;32.75;31.50;;;;;;;;5016309;28;11147;-80
2021/09/22 04:20:57;;;;;;;;;35.75;35.75;;;;;;;;5024606;28;11208;-83
2021/09/22 04:23:24;;;;;;;;;26.75;23.00;;;;;;;;5044299;28;11100;-80
2021/09/22 04:25:51;;;;;;;;;32.25;28.75;;;;;;;;5025571;28;11053;-82
2021/09/22 04:28:19;;;;;;;;;41.75;29.25;;;;;;;;5044542;28;11049;-82
2021/09/22 04:30:46;;;;;;;;;33.25;33.25;;;;;;;;5040521;28;11183;-83
2021/09/22 04:33:15;;;;;;;;;31.50;30.25;;;;;;;;5043788;28;11040;-84
2021/09/22 04:35:42;;;;;;;;;35.25;33.25;;;;;;;;5042936;28;11109;-83
2021/09/22 04:38:09;;;;;;;;;33.50;31.50;;;;;;;;5023519;28;11265;-84
2021/09/22 04:40:37;;;;;;;;;28.00;26.00;;;;;;;;5038080;28;11240;-83
2021/09/22 04:43:04;;;;;;;;;29.00;27.50;;;;;;;;5034717;28;10971;-85
2021/09/22 04:45:31;;;;;;;;;32.75;29.25;;;;;;;;5041145;28;10921;-80
2021/09/22 04:47:59;;;;;;;;;35.75;32.75;;;;;;;;5029145;28;11224;-82
2021/09/22 04:50:29;;;;;;;;;34.25;32.25;;;;;;;;5038838;28;11085;-79
2021/09/22 04:52:56;;;;;;;;;30.25;30.25;;;;;;;;5031403;28;11052;-80
2021/09/22 04:55:24;;;;;;;;;31.75;27.25;;;;;;;;5041559;28;10965;-80
2021/09/22 04:57:51;;;;;;;;;30.00;26.75;;;;;;;;5025068;28;11026;-84
2021/09/22 05:00:19;;;;;;;;;31.75;26.75;;;;;;;;5036984;28;10977;-80
2021/09/22 05:02:46;;;;;;;;;30.50;25.75;;;;;;;;5040136;28;11017;-76
2021/09/22 05:05:14;;;;;;;;;28.00;28.00;;;;;;;;5030620;28;10821;-81
2021/09/22 05:07:43;;;;;;;;;30.50;30.50;;;;;;;;5011498;28;10815;-79
2021/09/22 05:10:11;;;;;;;;;38.75;31.25;;;;;;;;5032173;28;10909;-81
2021/09/22 05:12:38;;;;;;;;;34.50;28.75;;;;;;;;5033382;28;11829;-80
2021/09/22 05:15:07;;;;;;;;;33.75;32.00;;;;;;;;5031201;28;10908;-78
2021/09/22 05:17:34;;;;;;;;;33.75;31.00;;;;;;;;5032515;28;11249;-78
2021/09/22 05:20:01;;;;;;;;;32.00;29.50;;;;;;;;5036159;28;11135;-88
2021/09/22 05:22:29;;;;;;;;;30.00;27.50;;;;;;;;5040831;28;11393;-79
2021/09/22 05:24:59;;;;;;;;;32.25;25.50;;;;;;;;5021315;28;11150;-81
2021/09/22 05:27:27;;;;;;;;;29.50;24.00;;;;;;;;5042447;28;11140;-78
2021/09/22 05:29:55;;;;;;;;;30.00;28.25;;;;;;;;5042403;28;11777;-80
2021/09/22 05:32:22;;;;;;;;;32.25;27.00;;;;;;;;5022334;28;11120;-80
2021/09/22 05:34:51;;;;;;;;;27.50;21.25;;;;;;;;5037975;28;11145;-78
2021/09/22 05:37:19;;;;;;;;;27.75;25.00;;;;;;;;5035530;28;10918;-80
2021/09/22 05:39:47;;;;;;;;;34.00;31.25;;;;;;;;5038035;28;11105;-81
2021/09/22 05:42:16;;;;;;;;;25.75;25.00;;;;;;;;5044972;28;11205;-82
2021/09/22 05:44:44;;;;;;;;;30.50;26.75;;;;;;;;5042899;28;11193;-80
2021/09/22 05:47:11;;;;;;;;;30.50;28.00;;;;;;;;5039432;28;11277;-81
2021/09/22 05:49:38;;;;;;;;;38.00;33.25;;;;;;;;5044911;28;11355;-83
2021/09/22 05:52:06;;;;;;;;;30.50;28.00;;;;;;;;5039325;28;11398;-85
2021/09/22 05:54:33;;;;;;;;;30.75;28.50;;;;;;;;5044736;28;11286;-84
2021/09/22 05:57:00;;;;;;;;;28.50;25.25;;;;;;;;5045479;28;11222;-74
2021/09/22 05:59:29;;;;;;;;;30.75;30.75;;;;;;;;5038074;28;11110;-73
2021/09/22 06:01:57;;;;;;;;;30.75;26.00;;;;;;;;5044328;28;10989;-74
2021/09/22 06:04:24;;;;;;;;;29.25;28.00;;;;;;;;5044891;28;11920;-73
2021/09/22 06:06:52;;;;;;;;;26.25;20.00;;;;;;;;5044469;28;11109;-74
2021/09/22 06:09:19;;;;;;;;;35.50;33.75;;;;;;;;5023614;28;11027;-74
2021/09/22 06:11:46;;;;;;;;;29.75;27.75;;;;;;;;5038891;28;11118;-74
2021/09/22 06:14:13;;;;;;;;;28.75;26.75;;;;;;;;5041289;28;11013;-74
2021/09/22 06:16:42;;;;;;;;;26.75;22.75;;;;;;;;5045873;28;11023;-73
2021/09/22 06:19:09;;;;;;;;;28.25;26.25;;;;;;;;5045540;28;11226;-74
2021/09/22 06:21:37;;;;;;;;;31.75;27.75;;;;;;;;5046723;28;11774;-73
2021/09/22 06:24:05;;;;;;;;;27.75;26.50;;;;;;;;5039995;28;10952;-75
2021/09/22 06:26:32;;;;;;;;;32.75;29.50;;;;;;;;5043494;28;11036;-75
2021/09/22 06:28:59;;;;;;;;;36.25;30.00;;;;;;;;5042992;28;10928;-77
2021/09/22 06:31:26;;;;;;;;;34.00;26.00;;;;;;;;5041524;28;11079;-76
2021/09/22 06:33:55;;;;;;;;;31.50;28.75;;;;;;;;5042149;28;11022;-75
2021/09/22 06:36:22;;;;;;;;;39.25;32.50;;;;;;;;5041479;28;11072;-74
2021/09/22 06:38:49;;;;;;;;;33.25;31.00;;;;;;;;5042347;28;11122;-76
2021/09/22 06:41:16;;;;;;;;;29.25;27.50;;;;;;;;5036645;28;10876;-75
2021/09/22 06:43:44;;;;;;;;;32.00;31.00;;;;;;;;5036889;28;11699;-75
2021/09/22 06:46:11;;;;;;;;;41.00;30.25;;;;;;;;5041095;28;10974;-75
2021/09/22 06:48:38;;;;;;;;;35.50;33.00;;;;;;;;5038324;28;11753;-75
2021/09/22 06:51:09;;;;;;;;;30.25;29.25;;;;;;;;5043192;28;10936;-75
2021/09/22 06:53:37;;;;;;;;;26.50;24.75;;;;;;;;5036459;28;11498;-75
2021/09/22 06:56:05;;;;;;;;;38.00;31.00;;;;;;;;5045687;28;10572;-76
2021/09/22 06:58:32;;;;;;;;;33.75;33.00;;;;;;;;5036429;28;10750;-76
2021/09/22 07:00:59;;;;;;;;;31.50;28.00;;;;;;;;5044080;28;10524;-75
2021/09/22 07:03:27;;;;;;;;;31.75;30.00;;;;;;;;5039660;28;11448;-76
2021/09/22 07:05:54;;;;;;;;;32.25;29.00;;;;;;;;5039124;28;10630;-76
2021/09/22 07:08:23;;;;;;;;;31.75;29.75;;;;;;;;5044610;28;10749;-75
2021/09/22 07:10:51;;;;;;;;;29.75;29.50;;;;;;;;5045138;28;10508;-75
2021/09/22 07:13:20;;;;;;;;;37.00;35.50;;;;;;;;5045313;28;10275;-74
2021/09/22 07:15:47;;;;;;;;;35.00;34.00;;;;;;;;5041983;28;11251;-75
2021/09/22 07:18:18;;;;;;;;;35.50;33.50;;;;;;;;5044638;28;10434;-76
2021/09/22 07:20:45;;;;;;;;;33.50;33.00;;;;;;;;5016919;28;10417;-76
2021/09/22 07:23:13;;;;;;;;;28.75;28.25;;;;;;;;5034265;28;10439;-76
2021/09/22 07:25:42;;;;;;;;;36.75;29.25;;;;;;;;5043432;28;10347;-77
2021/09/22 07:28:09;;;;;;;;;33.25;31.50;;;;;;;;5021366;28;10444;-75
2021/09/22 07:30:36;;;;;;;;;28.50;26.50;;;;;;;;5044275;28;10285;-76
2021/09/22 07:33:05;;;;;;;;;32.25;30.00;;;;;;;;5032998;28;10181;-75
2021/09/22 07:35:33;;;;;;;;;38.25;34.50;;;;;;;;5021319;28;10287;-73
2021/09/22 07:38:01;;;;;;;;;33.00;30.00;;;;;;;;5040925;28;10273;-75
2021/09/22 07:40:29;;;;;;;;;32.00;30.00;;;;;;;;5043159;28;10179;-75
2021/09/22 07:42:58;;;;;;;;;33.00;29.25;;;;;;;;5023393;28;10108;-75
2021/09/22 07:45:26;;;;;;;;;35.75;31.00;;;;;;;;5034598;28;10056;-75
2021/09/22 07:47:53;;;;;;;;;29.00;26.00;;;;;;;;5041783;28;9919;-75
2021/09/22 07:50:21;;;;;;;;;28.75;26.75;;;;;;;;5021508;28;9796;-74
2021/09/22 07:52:49;;;;;;;;;28.00;23.25;;;;;;;;5032734;28;10289;-74
2021/09/22 07:55:17;;;;;;;;;25.50;25.50;;;;;;;;5040179;28;9809;-75
2021/09/22 07:57:44;;;;;;;;;27.75;27.75;;;;;;;;5042506;28;9841;-75
2021/09/22 08:00:14;;;;;;;;;32.00;30.00;;;;;;;;5043101;28;9843;-76
2021/09/22 08:02:42;;;;;;;;;20.75;19.25;;;;;;;;5030098;28;9748;-76
2021/09/22 08:05:10;;;;;;;;;25.75;25.50;;;;;;;;5035474;28;9594;-77
2021/09/22 08:07:37;;;;;;;;;24.50;22.25;;;;;;;;5028035;28;9698;-77
2021/09/22 08:10:05;;;;;;;;;34.50;29.00;;;;;;;;5042103;28;9557;-77
2021/09/22 08:12:33;;;;;;;;;24.33;24.00;;;;;;;;5041235;28;9649;-76
2021/09/22 08:15:00;;;;;;;;;30.00;26.00;;;;;;;;5044200;28;10088;-76
2021/09/22 08:17:29;;;;;;;;;31.00;29.33;;;;;;;;5033400;28;9403;-76
2021/09/22 08:19:56;;;;;;;;;25.00;21.00;;;;;;;;5042439;28;9654;-79
2021/09/22 08:22:23;;;;;;;;;19.00;19.00;;;;;;;;5038192;28;9441;-76
2021/09/22 08:24:50;;;;;;;;;23.00;21.33;;;;;;;;5013996;28;9280;-80
2021/09/22 08:27:18;;;;;;;;;35.33;26.00;;;;;;;;5040531;28;9078;-77
2021/09/22 08:29:46;;;;;;;;;28.00;25.00;;;;;;;;5041818;28;9242;-80
2021/09/22 08:32:13;;;;;;;;;18.67;18.67;;;;;;;;5040260;28;9178;-77
2021/09/22 08:34:42;;;;;;;;;24.25;23.25;;;;;;;;5035540;28;9055;-81
2021/09/22 08:37:09;;;;;;;;;21.75;20.25;;;;;;;;5033712;28;8868;-78
2021/09/22 08:39:37;;;;;;;;;22.25;21.25;;;;;;;;5040362;28;8859;-79
2021/09/22 08:42:05;;;;;;;;;23.00;21.50;;;;;;;;5042196;28;8882;-78
2021/09/22 08:44:32;;;;;;;;;22.25;20.75;;;;;;;;5042262;28;9803;-80
2021/09/22 08:47:00;;;;;;;;;18.00;17.25;;;;;;;;5041419;28;8868;-76
2021/09/22 08:49:28;;;;;;;;;21.75;20.25;;;;;;;;5035014;28;8848;-79
2021/09/22 08:51:57;;;;;;;;;20.75;20.25;;;;;;;;5039783;28;8876;-78
2021/09/22 08:54:24;;;;;;;;;22.00;20.25;;;;;;;;5040191;28;8868;-78
2021/09/22 08:56:52;;;;;;;;;19.75;19.75;;;;;;;;5042359;28;8858;-79
2021/09/22 08:59:19;;;;;;;;;21.50;21.50;;;;;;;;5040910;28;8881;-78
2021/09/22 09:02:06;;;;;;;;;23.00;18.00;;;;;;;;5037829;28;8837;-78
2021/09/22 09:04:33;;;;;;;;;17.00;14.50;;;;;;;;5039308;28;8990;-79
2021/09/22 09:07:02;;;;;;;;;18.25;18.25;;;;;;;;5042398;28;8890;-80
2021/09/22 09:09:33;;;;;;;;;15.75;15.75;;;;;;;;5040807;28;8886;-79
2021/09/22 09:12:01;;;;;;;;;16.75;16.75;;;;;;;;5041331;28;8883;-78
2021/09/22 09:14:33;;;;;;;;;14.75;14.75;;;;;;;;5041729;28;8848;-79
2021/09/22 09:17:09;;;;;;;;;15.75;15.75;;;;;;;;5043122;28;8887;-80
2021/09/22 09:19:37;;;;;;;;;16.25;16.25;;;;;;;;5037781;28;8839;-78
2021/09/22 09:22:09;;;;;;;;;19.00;16.00;;;;;;;;5042519;28;8864;-80
2021/09/22 09:24:39;;;;;;;;;14.25;14.25;;;;;;;;5035905;28;8876;-78
2021/09/22 09:27:09;;;;;;;;;19.50;16.00;;;;;;;;5041973;28;8859;-81
2021/09/22 09:29:37;;;;;;;;;19.50;18.75;;;;;;;;5042790;28;9570;-79
2021/09/22 09:32:21;;;;;;;;;17.75;17.25;;;;;;;;5041233;28;8789;-79
2021/09/22 09:35:03;;;;;;;;;15.00;14.50;;;;;;;;5036964;28;8858;-76
2021/09/22 09:37:35;;;;;;;;;12.50;12.50;;;;;;;;5041014;28;8860;-77
2021/09/22 09:40:33;;;;;;;;;12.00;11.50;;;;;;;;5041090;28;8866;-78
2021/09/22 09:43:01;;;;;;;;;13.50;13.50;;;;;;;;4948990;28;8871;-78
2021/09/22 09:45:33;;;;;;;;;15.00;15.00;;;;;;;;5024684;28;8862;-79
2021/09/22 09:48:03;;;;;;;;;14.00;14.00;;;;;;;;5013254;28;8976;-80
2021/09/22 09:50:31;;;;;;;;;11.00;11.00;;;;;;;;5036071;28;8858;-79
2021/09/22 09:53:01;;;;;;;;;12.40;12.40;;;;;;;;5039979;28;8888;-80
2021/09/22 09:55:33;;;;;;;;;10.60;10.60;;;;;;;;5033866;28;9629;-78
2021/09/22 09:58:00;;;;;;;;;11.00;11.00;;;;;;;;5038333;28;8852;-80
2021/09/22 10:00:46;;;;;;;;;13.40;13.40;;;;;;;;5042176;28;9553;-80
2021/09/22 10:03:16;;;;;;;;;12.40;12.40;;;;;;;;5031427;28;8840;-80
2021/09/22 10:05:43;;;;;;;;;9.20;8.40;;;;;;;;5039827;28;8870;-80
2021/09/22 10:08:14;;;;;;;;;9.00;9.00;;;;;;;;5023979;28;8880;-78
2021/09/22 10:10:43;;;;;;;;;13.80;13.80;;;;;;;;5040731;28;8867;-79
2021/09/22 10:13:11;;;;;;;;;13.60;11.60;;;;;;;;5044190;28;9693;-79
2021/09/22 10:15:40;;;;;;;;;10.20;10.20;;;;;;;;5038326;28;8914;-80
2021/09/22 10:18:08;;;;;;;;;10.60;10.60;;;;;;;;5041927;28;8885;-80
2021/09/22 10:20:38;;;;;;;;;13.80;13.80;;;;;;;;5036581;28;8866;-80
2021/09/22 10:23:05;;;;;;;;;14.80;12.60;;;;;;;;5029104;28;8942;-80
2021/09/22 10:25:35;;;;;;;;;9.60;9.60;;;;;;;;5023578;28;8899;-80
2021/09/22 10:28:03;;;;;;;;;10.80;9.40;;;;;;;;5042665;28;8940;-79
2021/09/22 10:30:35;;;;;;;;;9.60;9.20;;;;;;;;5027158;28;8819;-80
2021/09/22 10:33:03;;;;;;;;;11.80;9.80;;;;;;;;5045784;28;9132;-80
2021/09/22 10:35:36;;;;;;;;;10.60;8.80;;;;;;;;5038388;28;8869;-81
2021/09/22 10:38:52;;;;;;;;;8.60;8.60;;;;;;;;5042415;28;8962;-80
2021/09/22 10:41:29;;;;;;;;;9.80;9.80;;;;;;;;5040833;28;9634;-80
2021/09/22 10:43:57;;;;;;;;;14.00;13.00;;;;;;;;5037589;28;8871;-79
2021/09/22 10:46:25;;;;;;;;;10.80;10.80;;;;;;;;5026507;28;8834;-80
2021/09/22 10:49:16;;;;;;;;;6.60;6.60;;;;;;;;5044677;28;8875;-79
2021/09/22 10:51:48;;;;;;;;;9.80;9.80;;;;;;;;5040163;28;8875;-81
2021/09/22 10:54:18;;;;;;;;;6.00;6.00;;;;;;;;5045027;28;8937;-79
2021/09/22 10:56:52;;;;;;;;;11.40;9.60;;;;;;;;5039352;28;8872;-78
2021/09/22 10:59:37;;;;;;;;;7.20;7.20;;;;;;;;5043547;28;8962;-77
2021/09/22 11:02:08;;;;;;;;;8.40;8.40;;;;;;;;5036318;28;9608;-77
2021/09/22 11:04:56;;;;;;;;;7.80;7.20;;;;;;;;5047299;28;8953;-76
2021/09/22 11:07:24;;;;;;;;;7.60;7.60;;;;;;;;5042031;28;8879;-76
2021/09/22 11:09:53;;;;;;;;;7.40;7.40;;;;;;;;5044317;28;8863;-78
2021/09/22 11:12:22;;;;;;;;;8.00;8.00;;;;;;;;5039898;28;8997;-75
2021/09/22 11:14:59;;;;;;;;;9.40;8.60;;;;;;;;5042444;28;8864;-75
2021/09/22 11:17:29;;;;;;;;;10.00;6.00;;;;;;;;5037396;28;8878;-78
2021/09/22 11:19:58;;;;;;;;;5.00;5.00;;;;;;;;5035399;28;8879;-76
2021/09/22 11:22:27;;;;;;;;;5.20;5.20;;;;;;;;5037893;28;8878;-76
2021/09/22 11:24:59;;;;;;;;;6.20;6.20;;;;;;;;5037919;28;8850;-76
2021/09/22 11:27:29;;;;;;;;;2.00;2.00;;;;;;;;5043081;28;8867;-78
2021/09/22 11:29:58;;;;;;;;;9.00;7.20;;;;;;;;5037432;28;8850;-76
2021/09/22 11:32:32;;;;;;;;;5.40;5.40;;;;;;;;5043282;28;8809;-78
2021/09/22 11:35:02;;;;;;;;;5.00;5.00;;;;;;;;5037538;28;8959;-76
2021/09/22 11:37:31;;;;;;;;;5.00;5.00;;;;;;;;5041513;28;8852;-79
2021/09/22 11:40:16;;;;;;;;;4.40;4.40;;;;;;;;5037404;28;9001;-77
2021/09/22 11:42:56;;;;;;;;;5.20;4.00;;;;;;;;5036192;28;8832;-75
2021/09/22 11:45:24;;;;;;;;;4.80;3.60;;;;;;;;5037118;28;8860;-80
2021/09/22 11:47:52;;;;;;;;;5.80;5.80;;;;;;;;5032271;28;9682;-76
2021/09/22 11:50:31;;;;;;;;;4.80;4.80;;;;;;;;5040637;28;8864;-75
2021/09/22 11:52:59;;;;;;;;;2.20;2.20;;;;;;;;5039393;28;8864;-83
2021/09/22 11:55:27;;;;;;;;;5.00;3.80;;;;;;;;5041169;28;8863;-79
2021/09/22 11:57:56;;;;;;;;;2.80;2.80;;;;;;;;5042823;28;8852;-78
2021/09/22 12:00:25;;;;;;;;;5.80;5.80;;;;;;;;5030869;28;8901;-79
2021/09/22 12:02:53;;;;;;;;;5.20;4.60;;;;;;;;5032695;28;8880;-78
2021/09/22 12:05:22;;;;;;;;;5.00;5.00;;;;;;;;5042048;28;9828;-77
2021/09/22 12:07:54;;;;;;;;;4.00;4.00;;;;;;;;5039208;28;8955;-78
2021/09/22 12:10:23;;;;;;;;;5.20;4.20;;;;;;;;5040216;28;8966;-77
2021/09/22 12:12:50;;;;;;;;;5.40;5.40;;;;;;;;5036823;28;9622;-77
2021/09/22 12:15:19;;;;;;;;;4.40;4.40;;;;;;;;5041688;28;8855;-76
2021/09/22 12:17:47;;;;;;;;;5.80;5.80;;;;;;;;5025837;28;8842;-77
2021/09/22 12:20:16;;;;;;;;;5.00;5.00;;;;;;;;5035697;28;8858;-79
2021/09/22 12:22:46;;;;;;;;;4.80;4.80;;;;;;;;5039858;28;8862;-77
2021/09/22 12:25:15;;;;;;;;;4.20;4.20;;;;;;;;5035906;28;8858;-78
2021/09/22 12:27:49;;;;;;;;;5.00;4.40;;;;;;;;5036126;28;8989;-78
2021/09/22 12:30:19;;;;;;;;;4.80;4.00;;;;;;;;5021854;28;8851;-78
2021/09/22 12:32:53;;;;;;;;;3.60;3.60;;;;;;;;5041469;28;8986;-77
2021/09/22 12:35:21;;;;;;;;;3.80;3.80;;;;;;;;5039637;28;8880;-77
2021/09/22 12:37:53;;;;;;;;;3.80;3.80;;;;;;;;5037072;28;8848;-77
2021/09/22 12:40:28;;;;;;;;;4.00;4.00;;;;;;;;5037754;28;8880;-78
2021/09/22 12:42:55;;;;;;;;;4.00;4.00;;;;;;;;5041635;28;8831;-76
2021/09/22 12:45:25;;;;;;;;;5.40;5.40;;;;;;;;5041987;28;8898;-77
2021/09/22 12:47:56;;;;;;;;;4.80;4.80;;;;;;;;5042440;28;8870;-76
2021/09/22 12:50:25;;;;;;;;;4.80;4.80;;;;;;;;5017482;28;8840;-77
2021/09/22 12:53:03;;;;;;;;;5.60;5.60;;;;;;;;5032376;28;8872;-77
2021/09/22 12:55:31;;;;;;;;;5.20;4.80;;;;;;;;5042898;28;8894;-78
2021/09/22 12:58:01;;;;;;;;;4.40;4.40;;;;;;;;5040443;28;8974;-77
2021/09/22 13:00:35;;;;;;;;;3.20;3.20;;;;;;;;5028476;28;8772;-77
2021/09/22 13:03:18;;;;;;;;;4.20;4.20;;;;;;;;5031325;28;8850;-77
2021/09/22 13:05:47;;;;;;;;;3.20;3.00;;;;;;;;5037719;28;8856;-77
2021/09/22 13:08:17;;;;;;;;;4.20;4.20;;;;;;;;5041610;28;9001;-77
2021/09/22 13:11:12;;;;;;;;;4.60;4.40;;;;;;;;5040788;28;8868;-76
2021/09/22 13:13:52;;;;;;;;;7.00;5.60;;;;;;;;4993672;28;9006;-78
2021/09/22 13:16:33;;;;;;;;;5.00;5.00;;;;;;;;5040110;28;8880;-78
2021/09/22 13:19:03;;;;;;;;;4.20;4.20;;;;;;;;5041313;28;8840;-77
2021/09/22 13:21:31;;;;;;;;;4.60;4.60;;;;;;;;5034196;28;8933;-76
2021/09/22 13:24:00;;;;;;;;;6.00;6.00;;;;;;;;5033109;28;8871;-77
2021/09/22 13:26:28;;;;;;;;;4.60;4.60;;;;;;;;5037660;28;8872;-77
2021/09/22 13:28:57;;;;;;;;;4.00;4.00;;;;;;;;5038213;28;8879;-77
2021/09/22 13:31:24;;;;;;;;;7.00;5.80;;;;;;;;5028478;28;8806;-77
2021/09/22 13:33:53;;;;;;;;;5.40;4.80;;;;;;;;5036037;28;8894;-77
2021/09/22 13:36:22;;;;;;;;;4.40;4.40;;;;;;;;5037912;28;8858;-78
2021/09/22 13:38:49;;;;;;;;;5.20;5.20;;;;;;;;5040363;28;8942;-76
2021/09/22 13:41:16;;;;;;;;;5.80;5.80;;;;;;;;5040796;28;8879;-76
2021/09/22 13:43:44;;;;;;;;;4.80;4.80;;;;;;;;5026820;28;8862;-79
2021/09/22 13:46:11;;;;;;;;;6.60;6.60;;;;;;;;5016884;28;8860;-78
2021/09/22 13:48:39;;;;;;;;;5.80;5.80;;;;;;;;5023420;28;8976;-78
2021/09/22 13:51:08;;;;;;;;;4.60;4.60;;;;;;;;5036440;28;8971;-78
2021/09/22 13:53:35;;;;;;;;;4.20;4.20;;;;;;;;5035823;28;8852;-76
2021/09/22 13:56:04;;;;;;;;;6.00;6.00;;;;;;;;5033779;28;8896;-77
2021/09/22 13:58:31;;;;;;;;;8.00;7.80;;;;;;;;5037864;28;8868;-78
2021/09/22 14:01:00;;;;;;;;;3.80;3.80;;;;;;;;5037456;28;8820;-76
2021/09/22 14:03:28;;;;;;;;;6.60;6.60;;;;;;;;5040154;28;8875;-77
2021/09/22 14:05:56;;;;;;;;;5.00;5.00;;;;;;;;5042217;28;8905;-77
2021/09/22 14:08:26;;;;;;;;;3.80;3.80;;;;;;;;5045722;28;9675;-75
2021/09/22 14:10:54;;;;;;;;;3.60;3.60;;;;;;;;5043209;28;8856;-75
2021/09/22 14:13:22;;;;;;;;;4.20;4.20;;;;;;;;5033271;28;8886;-77
2021/09/22 14:15:52;;;;;;;;;5.00;5.00;;;;;;;;5044884;28;9502;-76
2021/09/22 14:18:20;;;;;;;;;3.20;3.20;;;;;;;;5038404;28;8854;-77
2021/09/22 14:20:49;;;;;;;;;4.00;4.00;;;;;;;;5047099;28;8876;-79
2021/09/22 14:23:18;;;;;;;;;4.00;4.00;;;;;;;;5045614;28;8885;-77
2021/09/22 14:25:48;;;;;;;;;5.40;5.40;;;;;;;;5028635;28;8872;-77
2021/09/22 14:28:16;;;;;;;;;5.60;5.60;;;;;;;;5045796;28;8857;-77
2021/09/22 14:30:44;;;;;;;;;4.40;4.40;;;;;;;;5045452;28;8820;-77
2021/09/22 14:33:12;;;;;;;;;4.00;4.00;;;;;;;;5046642;28;8882;-78
2021/09/22 14:35:41;;;;;;;;;2.80;2.80;;;;;;;;5045539;28;9652;-78
2021/09/22 14:38:10;;;;;;;;;5.00;5.00;;;;;;;;5046623;28;8890;-77
2021/09/22 14:40:38;;;;;;;;;2.40;2.40;;;;;;;;5045345;28;8848;-77
2021/09/22 14:43:08;;;;;;;;;4.60;4.60;;;;;;;;5046454;28;10078;-77